Observation data for Anton on 05/25/2019      Previous  Date  Next       Current Mesonet Observations  Soil Data  Daily Summary Page  Observations in Plain Language
KAOS 250500Z 10015KT 20/16 A2999 RMK A01 T01950160  RH  084%=      5-min Rain = 0
KAOS 250505Z 10015KT 19/16 A2999 RMK A01 T01940160  RH  084%=      5-min Rain = 0
KAOS 250510Z 10015KT 19/16 A2999 RMK A01 T01940159  RH  084%=      5-min Rain = 0
KAOS 250515Z 10015KT 19/16 A2999 RMK A01 T01930159  RH  085%=      5-min Rain = 0
KAOS 250520Z 10014KT 19/16 A2999 RMK A01 T01910158  RH  085%=      5-min Rain = 0
KAOS 250525Z 10016KT 19/16 A2999 RMK A01 T01910158  RH  085%=      5-min Rain = 0
KAOS 250530Z 10016KT 19/16 A2998 RMK A01 T01900157  RH  085%=      5-min Rain = 0
KAOS 250535Z 10015KT 19/16 A2998 RMK A01 T01890157  RH  085%=      5-min Rain = 0
KAOS 250540Z 10014KT 19/16 A2998 RMK A01 T01870156  RH  086%=      5-min Rain = 0
KAOS 250545Z 10013KT 19/16 A2998 RMK A01 T01850155  RH  087%=      5-min Rain = 0
KAOS 250550Z 10012KT 18/16 A2998 RMK A01 T01830155  RH  088%=      5-min Rain = 0
KAOS 250555Z 10012KT 18/16 A2998 RMK A01 T01820155  RH  088%=      5-min Rain = 0
KAOS 250600Z 10012KT 18/16 A2998 RMK A01 T01820155  RH  088%=      5-min Rain = 0
KAOS 250605Z 10012KT 18/16 A2998 RMK A01 T01810155  RH  089%=      5-min Rain = 0
KAOS 250610Z 10011KT 18/16 A2998 RMK A01 T01800155  RH  090%=      5-min Rain = 0
KAOS 250615Z 11012KT 18/16 A2998 RMK A01 T01790155  RH  090%=      5-min Rain = 0
KAOS 250620Z 11012KT 18/16 A2998 RMK A01 T01780155  RH  090%=      5-min Rain = 0
KAOS 250625Z 11011KT 18/16 A2998 RMK A01 T01770155  RH  091%=      5-min Rain = 0
KAOS 250630Z 11011KT 18/16 A2998 RMK A01 T01760155  RH  091%=      5-min Rain = 0
KAOS 250635Z 11011KT 18/15 A2997 RMK A01 T01760154  RH  091%=      5-min Rain = 0
KAOS 250640Z 11010KT 18/16 A2997 RMK A01 T01750155  RH  092%=      5-min Rain = 0
KAOS 250645Z 11010KT 17/16 A2997 RMK A01 T01740155  RH  093%=      5-min Rain = 0
KAOS 250650Z 10010KT 17/16 A2997 RMK A01 T01730155  RH  093%=      5-min Rain = 0
KAOS 250655Z 10009KT 17/16 A2997 RMK A01 T01720155  RH  093%=      5-min Rain = 0
KAOS 250700Z 10009KT 17/15 A2997 RMK A01 T01720154  RH  094%=      5-min Rain = 0
KAOS 250705Z 11009KT 17/16 A2997 RMK A01 T01720155  RH  094%=      5-min Rain = 0
KAOS 250710Z 10009KT 17/16 A2997 RMK A01 T01720155  RH  094%=      5-min Rain = 0
KAOS 250715Z 10010KT 17/16 A2997 RMK A01 T01710156  RH  095%=      5-min Rain = 0
KAOS 250720Z 11010KT 17/16 A2997 RMK A01 T01710156  RH  095%=      5-min Rain = 0
KAOS 250725Z 11009KT 17/16 A2997 RMK A01 T01700156  RH  096%=      5-min Rain = 0
KAOS 250730Z 11010KT 17/16 A2997 RMK A01 T01700156  RH  096%=      5-min Rain = 0
KAOS 250735Z 10009KT 17/16 A2996 RMK A01 T01700156  RH  096%=      5-min Rain = 0
KAOS 250740Z 10010KT 17/16 A2996 RMK A01 T01700157  RH  096%=      5-min Rain = 0
KAOS 250745Z 10010KT 17/16 A2996 RMK A01 T01700157  RH  097%=      5-min Rain = 0
KAOS 250750Z 10010KT 17/16 A2996 RMK A01 T01700158  RH  097%=      5-min Rain = 0
KAOS 250755Z 10011KT 17/16 A2996 RMK A01 T01710159  RH  097%=      5-min Rain = 0
KAOS 250800Z 10011KT 17/16 A2996 RMK A01 T01720160  RH  097%=      5-min Rain = 0
KAOS 250805Z 11010KT 17/16 A2996 RMK A01 T01730160  RH  097%=      5-min Rain = 0
KAOS 250810Z 11010KT 17/16 A2996 RMK A01 T01730161  RH  097%=      5-min Rain = 0
KAOS 250815Z 11010KT 17/16 A2996 RMK A01 T01740162  RH  097%=      5-min Rain = 0
KAOS 250820Z 11010KT 17/16 A2996 RMK A01 T01740162  RH  097%=      5-min Rain = 0
KAOS 250825Z 11010KT 18/16 A2996 RMK A01 T01750162  RH  097%=      5-min Rain = 0
KAOS 250830Z 11009KT 18/16 A2996 RMK A01 T01750163  RH  097%=      5-min Rain = 0
KAOS 250835Z 11009KT 18/16 A2996 RMK A01 T01760164  RH  097%=      5-min Rain = 0
KAOS 250840Z 11010KT 18/16 A2995 RMK A01 T01770164  RH  097%=      5-min Rain = 0
KAOS 250845Z 11009KT 18/17 A2995 RMK A01 T01780165  RH  097%=      5-min Rain = 0
KAOS 250850Z 11010KT 18/17 A2995 RMK A01 T01780165  RH  096%=      5-min Rain = 0
KAOS 250855Z 11010KT 18/17 A2995 RMK A01 T01790165  RH  096%=      5-min Rain = 0
KAOS 250900Z 11011KT 18/17 A2995 RMK A01 T01790165  RH  096%=      5-min Rain = 0
KAOS 250905Z 11011KT 18/17 A2995 RMK A01 T01800165  RH  096%=      5-min Rain = 0
KAOS 250910Z 11010KT 18/17 A2995 RMK A01 T01800165  RH  096%=      5-min Rain = 0
KAOS 250915Z 11010KT 18/17 A2995 RMK A01 T01800166  RH  096%=      5-min Rain = 0
KAOS 250920Z 11010KT 18/17 A2995 RMK A01 T01810166  RH  096%=      5-min Rain = 0
KAOS 250925Z 11010KT 18/17 A2995 RMK A01 T01810166  RH  096%=      5-min Rain = 0
KAOS 250930Z 11009KT 18/17 A2995 RMK A01 T01810166  RH  096%=      5-min Rain = 0
KAOS 250935Z 11011KT 18/17 A2995 RMK A01 T01810166  RH  096%=      5-min Rain = 0
KAOS 250940Z 12011KT 18/17 A2996 RMK A01 T01820167  RH  095%=      5-min Rain = 0
KAOS 250945Z 12011KT 18/17 A2996 RMK A01 T01830168  RH  095%=      5-min Rain = 0
KAOS 250950Z 12011KT 19/17 A2996 RMK A01 T01850168  RH  095%=      5-min Rain = 0
KAOS 250955Z 12011KT 18/17 A2996 RMK A01 T01840168  RH  095%=      5-min Rain = 0
KAOS 251000Z 12011KT 18/17 A2996 RMK A01 T01840168  RH  095%=      5-min Rain = 0
KAOS 251005Z 12010KT 18/17 A2996 RMK A01 T01840169  RH  095%=      5-min Rain = 0
KAOS 251010Z 12010KT 18/17 A2996 RMK A01 T01840169  RH  095%=      5-min Rain = 0
KAOS 251015Z 12009KT 19/17 A2996 RMK A01 T01850169  RH  095%=      5-min Rain = 0
KAOS 251020Z 12009KT 19/17 A2997 RMK A01 T01850170  RH  095%=      5-min Rain = 0
KAOS 251025Z 13009KT 19/17 A2997 RMK A01 T01850170  RH  095%=      5-min Rain = 0
KAOS 251030Z 13009KT 19/17 A2997 RMK A01 T01850170  RH  095%=      5-min Rain = 0
KAOS 251035Z 13008KT 19/17 A2997 RMK A01 T01860170  RH  095%=      5-min Rain = 0
KAOS 251040Z 13009KT 19/17 A2997 RMK A01 T01860171  RH  095%=      5-min Rain = 0
KAOS 251045Z 13009KT 19/17 A2997 RMK A01 T01860171  RH  095%=      5-min Rain = 0
KAOS 251050Z 13008KT 19/17 A2997 RMK A01 T01860171  RH  095%=      5-min Rain = 0
KAOS 251055Z 13009KT 19/17 A2997 RMK A01 T01870171  RH  096%=      5-min Rain = 0
KAOS 251100Z 13009KT 19/17 A2998 RMK A01 T01870171  RH  096%=      5-min Rain = 0
KAOS 251105Z 13009KT 19/17 A2998 RMK A01 T01870172  RH  096%=      5-min Rain = 0
KAOS 251110Z 13009KT 19/17 A2998 RMK A01 T01870172  RH  096%=      5-min Rain = 0
KAOS 251115Z 13010KT 19/17 A2998 RMK A01 T01870172  RH  096%=      5-min Rain = 0
KAOS 251120Z 13009KT 19/17 A2998 RMK A01 T01870172  RH  096%=      5-min Rain = 0
KAOS 251125Z 13010KT 19/17 A2998 RMK A01 T01870172  RH  096%=      5-min Rain = 0
KAOS 251130Z 14010KT 19/17 A2998 RMK A01 T01870173  RH  096%=      5-min Rain = 0
KAOS 251135Z 14010KT 19/17 A2998 RMK A01 T01870173  RH  096%=      5-min Rain = 0
KAOS 251140Z 14011KT 19/17 A2998 RMK A01 T01870173  RH  096%=      5-min Rain = 0
KAOS 251145Z 13011KT 19/17 A2998 RMK A01 T01880173  RH  096%=      5-min Rain = 0
KAOS 251150Z 14011KT 19/17 A2998 RMK A01 T01880173  RH  096%=      5-min Rain = 0
KAOS 251155Z 13013KT 19/17 A2998 RMK A01 T01880173  RH  096%=      5-min Rain = 0
KAOS 251200Z 13013KT 19/17 A2998 RMK A01 T01880174  RH  096%=      5-min Rain = 0
KAOS 251205Z 14013KT 19/17 A2998 RMK A01 T01880174  RH  096%=      5-min Rain = 0
KAOS 251210Z 14013KT 19/17 A2999 RMK A01 T01890174  RH  096%=      5-min Rain = 0
KAOS 251215Z 13012KT 19/17 A2999 RMK A01 T01890174  RH  096%=      5-min Rain = 0
KAOS 251220Z 13012KT 19/18 A2999 RMK A01 T01890175  RH  096%=      5-min Rain = 0
KAOS 251225Z 14011KT 19/18 A2999 RMK A01 T01890175  RH  096%=      5-min Rain = 0
KAOS 251230Z 13011KT 19/18 A2999 RMK A01 T01900175  RH  096%=      5-min Rain = 0
KAOS 251235Z 13010KT 19/18 A30 RMK A01 T01900175  RH  096%=      5-min Rain = 0
KAOS 251240Z 13011KT 19/18 A30 RMK A01 T01900176  RH  096%=      5-min Rain = 0
KAOS 251245Z 13010KT 19/18 A30 RMK A01 T01910176  RH  096%=      5-min Rain = 0
KAOS 251250Z 13010KT 19/18 A30 RMK A01 T01910176  RH  096%=      5-min Rain = 0
KAOS 251255Z 13009KT 19/18 A30 RMK A01 T01910176  RH  096%=      5-min Rain = 0
KAOS 251300Z 14009KT 19/18 A30 RMK A01 T01920177  RH  096%=      5-min Rain = 0
KAOS 251305Z 14010KT 19/18 A30 RMK A01 T01920177  RH  096%=      5-min Rain = 0
KAOS 251310Z 14010KT 19/18 A3001 RMK A01 T01930178  RH  096%=      5-min Rain = 0
KAOS 251315Z 14010KT 19/18 A3001 RMK A01 T01940179  RH  096%=      5-min Rain = 0
KAOS 251320Z 14011KT 20/18 A3001 RMK A01 T01950179  RH  096%=      5-min Rain = 0
KAOS 251325Z 14011KT 20/18 A3001 RMK A01 T01960180  RH  095%=      5-min Rain = 0
KAOS 251330Z 14012KT 20/18 A3001 RMK A01 T01960180  RH  095%=      5-min Rain = 0
KAOS 251335Z 14012KT 20/18 A3001 RMK A01 T01970181  RH  095%=      5-min Rain = 0
KAOS 251340Z 14013KT 20/18 A3001 RMK A01 T01970181  RH  095%=      5-min Rain = 0
KAOS 251345Z 15014KT 20/18 A3001 RMK A01 T01980181  RH  095%=      5-min Rain = 0
KAOS 251350Z 15013KT 20/18 A3001 RMK A01 T01980181  RH  095%=      5-min Rain = 0
KAOS 251355Z 15014KT 20/18 A3001 RMK A01 T01990182  RH  095%=      5-min Rain = 0
KAOS 251400Z 15014KT 20/18 A3001 RMK A01 T02000183  RH  095%=      5-min Rain = 0
KAOS 251405Z 15014KT 20/18 A3001 RMK A01 T02000183  RH  095%=      5-min Rain = 0
KAOS 251410Z 15014KT 20/18 A3002 RMK A01 T02000183  RH  095%=      5-min Rain = 0
KAOS 251415Z 15013KT 20/18 A3002 RMK A01 T02000183  RH  095%=      5-min Rain = 0
KAOS 251420Z 15012KT 20/18 A3002 RMK A01 T02000183  RH  095%=      5-min Rain = 0
KAOS 251425Z 15014KT 20/18 A3002 RMK A01 T02000183  RH  095%=      5-min Rain = 0
KAOS 251430Z 14013KT 20/18 A3002 RMK A01 T02000183  RH  095%=      5-min Rain = 0
KAOS 251435Z 14014KT 20/18 A3002 RMK A01 T02000183  RH  095%=      5-min Rain = 0
KAOS 251440Z 14014KT 20/18 A3002 RMK A01 T02000184  RH  095%=      5-min Rain = 0
KAOS 251445Z 14015KT 20/18 A3002 RMK A01 T02000184  RH  095%=      5-min Rain = 0
KAOS 251450Z 14015KT 20/18 A3002 RMK A01 T02010184  RH  095%=      5-min Rain = 0
KAOS 251455Z 14015KT 20/18 A3002 RMK A01 T02000184  RH  095%=      5-min Rain = 0
KAOS 251500Z 14014KT 20/19 A3002 RMK A01 T02010185  RH  095%=      5-min Rain = 0
KAOS 251505Z 14016KT 20/18 A3001 RMK A01 T02010184  RH  095%=      5-min Rain = 0
KAOS 251510Z 14015KT 20/19 A3001 RMK A01 T02020185  RH  095%=      5-min Rain = 0
KAOS 251515Z 14014KT 20/19 A3001 RMK A01 T02020186  RH  095%=      5-min Rain = 0
KAOS 251520Z 14015KT 20/19 A3001 RMK A01 T02030186  RH  095%=      5-min Rain = 0
KAOS 251525Z 14015KT 20/19 A3001 RMK A01 T02040187  RH  095%=      5-min Rain = 0
KAOS 251530Z 14016KT 20/19 A3001 RMK A01 T02030187  RH  095%=      5-min Rain = 0
KAOS 251535Z 15017KT 20/19 A3001 RMK A01 T02040187  RH  095%=      5-min Rain = 0
KAOS 251540Z 14016KT 21/19 A3001 RMK A01 T02050187  RH  095%=      5-min Rain = 0
KAOS 251545Z 15016KT 20/19 A3001 RMK A01 T02040187  RH  095%=      5-min Rain = 0
KAOS 251550Z 15017KT 20/19 A3001 RMK A01 T02040187  RH  095%=      5-min Rain = 0
KAOS 251555Z 15016KT 20/19 A3001 RMK A01 T02040187  RH  095%=      5-min Rain = 0
KAOS 251600Z 15015KT 21/19 A3001 RMK A01 T02050188  RH  095%=      5-min Rain = 0
KAOS 251605Z 15016KT 21/19 A3002 RMK A01 T02060189  RH  095%=      5-min Rain = 0
KAOS 251610Z 15018KT 21/19 A3002 RMK A01 T02070188  RH  094%=      5-min Rain = 0
KAOS 251615Z 15018G23KT 21/19 A3002 RMK A01 T02070188  RH  094%=      5-min Rain = 0
KAOS 251620Z 16019KT 21/19 A3002 RMK A01 T02060187  RH  094%=      5-min Rain = 0
KAOS 251625Z 15017KT 21/19 A3002 RMK A01 T02070188  RH  094%=      5-min Rain = 0
KAOS 251630Z 15017G22KT 21/19 A3002 RMK A01 T02050188  RH  095%=      5-min Rain = 0
KAOS 251635Z 15016G21KT 21/19 A3002 RMK A01 T02060188  RH  095%=      5-min Rain = 0
KAOS 251640Z 15015G20KT 21/19 A3002 RMK A01 T02070189  RH  094%=      5-min Rain = 0
KAOS 251645Z 15015KT 21/19 A3002 RMK A01 T02100191  RH  094%=      5-min Rain = 0
KAOS 251650Z 14017KT 21/19 A3002 RMK A01 T02130191  RH  092%=      5-min Rain = 0
KAOS 251655Z 14017KT 22/19 A3002 RMK A01 T02150193  RH  092%=      5-min Rain = 0
KAOS 251700Z 14016KT 22/19 A3001 RMK A01 T02160193  RH  092%=      5-min Rain = 0
KAOS 251705Z 14017KT 22/19 A3002 RMK A01 T02160192  RH  091%=      5-min Rain = 0
KAOS 251710Z 14014KT 22/19 A3001 RMK A01 T02160193  RH  092%=      5-min Rain = 0
KAOS 251715Z 14016G21KT 22/19 A3001 RMK A01 T02160193  RH  091%=      5-min Rain = 0
KAOS 251720Z 14016KT 22/19 A3001 RMK A01 T02150191  RH  091%=      5-min Rain = 0
KAOS 251725Z 14018KT 21/19 A3001 RMK A01 T02130189  RH  091%=      5-min Rain = 0
KAOS 251730Z 13016KT 21/19 A3001 RMK A01 T02120189  RH  092%=      5-min Rain = 0
KAOS 251735Z 13016KT 21/19 A3001 RMK A01 T02100189  RH  093%=      5-min Rain = 0
KAOS 251740Z 13016KT 21/19 A3001 RMK A01 T02080189  RH  094%=      5-min Rain = 0
KAOS 251745Z 13016KT 21/19 A3001 RMK A01 T02080189  RH  094%=      5-min Rain = 0
KAOS 251750Z 13016KT 21/19 A3001 RMK A01 T02080189  RH  094%=      5-min Rain = 0
KAOS 251755Z 13015KT 21/19 A3001 RMK A01 T02090190  RH  094%=      5-min Rain = 0
KAOS 251800Z 13015KT 21/19 A30 RMK A01 T02100190  RH  093%=      5-min Rain = 0
KAOS 251805Z 13015KT 21/19 A30 RMK A01 T02110190  RH  093%=      5-min Rain = 0
KAOS 251810Z 13015KT 21/19 A30 RMK A01 T02110191  RH  093%=      5-min Rain = 0
KAOS 251815Z 13017KT 21/19 A2999 RMK A01 T02120191  RH  093%=      5-min Rain = 0
KAOS 251820Z 13017KT 21/19 A2999 RMK A01 T02130191  RH  092%=      5-min Rain = 0
KAOS 251825Z 12016KT 21/19 A2999 RMK A01 T02130191  RH  092%=      5-min Rain = 0
KAOS 251830Z 12016KT 21/19 A2998 RMK A01 T02120191  RH  093%=      5-min Rain = 0
KAOS 251835Z 12018KT 21/19 A2998 RMK A01 T02120190  RH  093%=      5-min Rain = 0
KAOS 251840Z 12018KT 21/19 A2998 RMK A01 T02120191  RH  093%=      5-min Rain = 0
KAOS 251845Z 12018G23KT 21/19 A2997 RMK A01 T02110190  RH  093%=      5-min Rain = 0
KAOS 251850Z 12019KT 21/19 A2996 RMK A01 T02100190  RH  093%=      5-min Rain = 0
KAOS 251855Z 12019KT 21/19 A2996 RMK A01 T02110190  RH  093%=      5-min Rain = 0
KAOS 251900Z 13018KT 21/19 A2996 RMK A01 T02110190  RH  093%=      5-min Rain = 0
KAOS 251905Z 13016KT 21/19 A2997 RMK A01 T02100190  RH  093%=      5-min Rain = 0
KAOS 251910Z 13017KT 21/19 A2997 RMK A01 T02110190  RH  093%=      5-min Rain = 0
KAOS 251915Z 13017KT 21/19 A2996 RMK A01 T02100190  RH  093%=      5-min Rain = 0
KAOS 251920Z 14016KT 21/19 A2996 RMK A01 T02110191  RH  093%=      5-min Rain = 0
KAOS 251925Z 15016G21KT 22/19 A2996 RMK A01 T02160194  RH  092%=      5-min Rain = 0
KAOS 251930Z 16015G21KT 22/20 A2997 RMK A01 T02200195  RH  091%=      5-min Rain = 0
KAOS 251935Z 16014G19KT 22/20 A2997 RMK A01 T02230195  RH  089%=      5-min Rain = 0
KAOS 251940Z 16012G17KT 22/20 A2997 RMK A01 T02230196  RH  089%=      5-min Rain = 0
KAOS 251945Z 14010G15KT 23/20 A2998 RMK A01 T02270197  RH  088%=      5-min Rain = 0
KAOS 251950Z 34007KT 20/15 A2998 RMK A01 T02000150  RH  076%=      5-min Rain = 0
KAOS 251955Z 34006G11KT 18/14 A2997 RMK A01 T01770137  RH  081%=      5-min Rain = 0
KAOS 252000Z 03006KT 18/14 A2996 RMK A01 T01750143  RH  085%=      5-min Rain = 0
KAOS 252005Z 01008KT 18/15 A2995 RMK A01 T01760146  RH  086%=      5-min Rain = 0
KAOS 252010Z 00005G10KT 18/15 A2995 RMK A01 T01780146  RH  085%=      5-min Rain = 0
KAOS 252015Z 01005KT 18/15 A2994 RMK A01 T01830149  RH  085%=      5-min Rain = 0
KAOS 252020Z 03006KT 19/15 A2995 RMK A01 T01870154  RH  085%=      5-min Rain = 0
KAOS 252025Z 03007KT 19/15 A2994 RMK A01 T01850153  RH  085%=      5-min Rain = 0
KAOS 252030Z 04008G14KT 19/16 A2994 RMK A01 T01880158  RH  086%=      5-min Rain = 0
KAOS 252035Z 14013KT 22/20 A2994 RMK A01 T02220196  RH  090%=      5-min Rain = 0
KAOS 252040Z 14018KT 24/20 A2994 RMK A01 T02400200  RH  083%=      5-min Rain = 0
KAOS 252045Z 14018KT 24/20 A2994 RMK A01 T02440201  RH  081%=      5-min Rain = 0
KAOS 252050Z 14018G23KT 25/20 A2993 RMK A01 T02460199  RH  080%=      5-min Rain = 0
KAOS 252055Z 14019G25KT 25/20 A2992 RMK A01 T02460196  RH  078%=      5-min Rain = 0
KAOS 252100Z 14021G28KT 24/20 A2991 RMK A01 T02440195  RH  079%=      5-min Rain = 0
KAOS 252105Z 14022G27KT 25/20 A299 RMK A01 T02490200  RH  079%=      5-min Rain = 0
KAOS 252110Z 15024G29KT 26/20 A2989 RMK A01 T02560201  RH  076%=      5-min Rain = 0
KAOS 252115Z 15024G30KT 26/20 A2989 RMK A01 T02580197  RH  074%=      5-min Rain = 0
KAOS 252120Z 15023G30KT 26/20 A299 RMK A01 T02570196  RH  073%=      5-min Rain = 0
KAOS 252125Z 15021G29KT 25/20 A299 RMK A01 T02530195  RH  074%=      5-min Rain = 0
KAOS 252130Z 15027G33KT 25/19 A2988 RMK A01 T02530191  RH  073%=      5-min Rain = 0
KAOS 252135Z 15024G31KT 25/19 A2988 RMK A01 T02520193  RH  074%=      5-min Rain = 0
KAOS 252140Z 14026G31KT 25/19 A2987 RMK A01 T02530192  RH  073%=      5-min Rain = 0
KAOS 252145Z 14028G35KT 26/19 A2987 RMK A01 T02570194  RH  072%=      5-min Rain = 0
KAOS 252150Z 14028G34KT 26/20 A2987 RMK A01 T02610195  RH  071%=      5-min Rain = 0
KAOS 252155Z 15028G34KT 26/19 A2986 RMK A01 T02630194  RH  070%=      5-min Rain = 0
KAOS 252200Z 15031G39KT 26/19 A2985 RMK A01 T02640191  RH  068%=      5-min Rain = 0
KAOS 252205Z 15032G38KT 26/19 A2986 RMK A01 T02630188  RH  067%=      5-min Rain = 0
KAOS 252210Z 16026G31KT 26/19 A2987 RMK A01 T02600188  RH  068%=      5-min Rain = 0
KAOS 252215Z 15022G32KT 26/19 A2987 RMK A01 T02570189  RH  070%=      5-min Rain = 0
KAOS 252220Z 15023G28KT 26/19 A2987 RMK A01 T02550188  RH  070%=      5-min Rain = 0
KAOS 252225Z 15023G29KT 25/19 A2987 RMK A01 T02510187  RH  071%=      5-min Rain = 0
KAOS 252230Z 15024G29KT 25/19 A2987 RMK A01 T02490186  RH  072%=      5-min Rain = 0
KAOS 252235Z 16023G29KT 25/19 A2987 RMK A01 T02460186  RH  073%=      5-min Rain = 0
KAOS 252240Z 16024G32KT 25/19 A2987 RMK A01 T02450185  RH  073%=      5-min Rain = 0
KAOS 252245Z 15014G21KT 24/19 A2987 RMK A01 T02420186  RH  075%=      5-min Rain = 0
KAOS 252250Z 18017G23KT 24/19 A2989 RMK A01 T02400186  RH  076%=      5-min Rain = 0
KAOS 252255Z 20014KT 24/19 A299 RMK A01 T02380185  RH  076%=      5-min Rain = 0
KAOS 252300Z 20013KT 24/18 A299 RMK A01 T02400183  RH  074%=      5-min Rain = 0
KAOS 252305Z 19012KT 24/18 A2992 RMK A01 T02390184  RH  075%=      5-min Rain = 0
KAOS 252310Z 18014G25KT 24/18 A2994 RMK A01 T02420183  RH  074%=      5-min Rain = 0
KAOS 252315Z 19011KT 25/18 A2995 RMK A01 T02470182  RH  071%=      5-min Rain = 0
KAOS 252320Z 17006G13KT 25/18 A2995 RMK A01 T02480184  RH  071%=      5-min Rain = 0
KAOS 252325Z 18013G21KT 25/19 A2996 RMK A01 T02490185  RH  071%=      5-min Rain = 0
KAOS 252330Z 17019G24KT 25/19 A2995 RMK A01 T02500185  RH  071%=      5-min Rain = 0
KAOS 252335Z 16016G21KT 25/19 A2995 RMK A01 T02530188  RH  071%=      5-min Rain = 0
KAOS 252340Z 16016G23KT 26/19 A2994 RMK A01 T02550189  RH  071%=      5-min Rain = 0
KAOS 252345Z 16018KT 26/19 A2993 RMK A01 T02560189  RH  071%=      5-min Rain = 0
KAOS 252350Z 17018G23KT 26/19 A2993 RMK A01 T02570189  RH  070%=      5-min Rain = 0
KAOS 252355Z 16020KT 26/19 A2992 RMK A01 T02570188  RH  069%=      5-min Rain = 0
KAOS 260000Z 16018G25KT 26/19 A2992 RMK A01 T02570188  RH  070%=      5-min Rain = 0
KAOS 260005Z 16018KT 26/19 A2992 RMK A01 T02570188  RH  069%=      5-min Rain = 0
KAOS 260010Z 15015KT 26/19 A2992 RMK A01 T02570190  RH  070%=      5-min Rain = 0
KAOS 260015Z 15016G22KT 26/19 A2991 RMK A01 T02570189  RH  070%=      5-min Rain = 0
KAOS 260020Z 15018KT 26/19 A2991 RMK A01 T02570189  RH  070%=      5-min Rain = 0
KAOS 260025Z 15018G23KT 26/19 A2991 RMK A01 T02560188  RH  070%=      5-min Rain = 0
KAOS 260030Z 15019G24KT 25/19 A2991 RMK A01 T02540189  RH  071%=      5-min Rain = 0
KAOS 260035Z 15019KT 25/19 A2991 RMK A01 T02520189  RH  072%=      5-min Rain = 0
KAOS 260040Z 15019KT 25/19 A2991 RMK A01 T02510188  RH  072%=      5-min Rain = 0
KAOS 260045Z 15018G23KT 25/19 A2991 RMK A01 T02500188  RH  072%=      5-min Rain = 0
KAOS 260050Z 15015KT 25/19 A2992 RMK A01 T02480190  RH  074%=      5-min Rain = 0
KAOS 260055Z 15016KT 25/19 A2992 RMK A01 T02470189  RH  074%=      5-min Rain = 0
KAOS 260100Z 15015G20KT 25/19 A2992 RMK A01 T02450189  RH  075%=      5-min Rain = 0
KAOS 260105Z 14016KT 24/19 A2992 RMK A01 T02440188  RH  075%=      5-min Rain = 0
KAOS 260110Z 14016KT 24/19 A2992 RMK A01 T02420189  RH  077%=      5-min Rain = 0
KAOS 260115Z 15015KT 24/19 A2992 RMK A01 T02400188  RH  077%=      5-min Rain = 0
KAOS 260120Z 15015KT 24/19 A2993 RMK A01 T02390187  RH  077%=      5-min Rain = 0
KAOS 260125Z 14016KT 24/19 A2993 RMK A01 T02370186  RH  077%=      5-min Rain = 0
KAOS 260130Z 14016KT 24/19 A2993 RMK A01 T02360186  RH  078%=      5-min Rain = 0
KAOS 260135Z 14018KT 24/19 A2993 RMK A01 T02350185  RH  078%=      5-min Rain = 0
KAOS 260140Z 14017KT 24/19 A2993 RMK A01 T02350185  RH  077%=      5-min Rain = 0
KAOS 260145Z 14016KT 23/18 A2993 RMK A01 T02340184  RH  078%=      5-min Rain = 0
KAOS 260150Z 14016KT 23/18 A2993 RMK A01 T02320183  RH  078%=      5-min Rain = 0
KAOS 260155Z 14015KT 23/18 A2993 RMK A01 T02290183  RH  080%=      5-min Rain = 0
KAOS 260200Z 14015KT 23/18 A2993 RMK A01 T02290183  RH  079%=      5-min Rain = 0
KAOS 260205Z 14016KT 23/18 A2993 RMK A01 T02280182  RH  079%=      5-min Rain = 0
KAOS 260210Z 14015KT 23/18 A2993 RMK A01 T02260182  RH  080%=      5-min Rain = 0
KAOS 260215Z 14015KT 22/18 A2993 RMK A01 T02240182  RH  081%=      5-min Rain = 0
KAOS 260220Z 14015KT 22/18 A2993 RMK A01 T02240181  RH  081%=      5-min Rain = 0
KAOS 260225Z 14018KT 23/18 A2993 RMK A01 T02250180  RH  080%=      5-min Rain = 0
KAOS 260230Z 14018KT 23/18 A2993 RMK A01 T02250180  RH  080%=      5-min Rain = 0
KAOS 260235Z 14018G23KT 23/18 A2994 RMK A01 T02250179  RH  080%=      5-min Rain = 0
KAOS 260240Z 14017KT 22/18 A2994 RMK A01 T02230179  RH  080%=      5-min Rain = 0
KAOS 260245Z 15016KT 22/18 A2994 RMK A01 T02220179  RH  081%=      5-min Rain = 0
KAOS 260250Z 15015G20KT 22/18 A2994 RMK A01 T02210179  RH  081%=      5-min Rain = 0
KAOS 260255Z 14016KT 22/18 A2994 RMK A01 T02200179  RH  082%=      5-min Rain = 0
KAOS 260300Z 15017KT 22/18 A2994 RMK A01 T02200179  RH  082%=      5-min Rain = 0
KAOS 260305Z 15017KT 22/18 A2994 RMK A01 T02200179  RH  082%=      5-min Rain = 0
KAOS 260310Z 15016KT 22/18 A2994 RMK A01 T02190179  RH  082%=      5-min Rain = 0
KAOS 260315Z 15016G22KT 22/18 A2994 RMK A01 T02180179  RH  083%=      5-min Rain = 0
KAOS 260320Z 15017KT 22/18 A2993 RMK A01 T02190179  RH  082%=      5-min Rain = 0
KAOS 260325Z 15017KT 22/18 A2994 RMK A01 T02180179  RH  082%=      5-min Rain = 0
KAOS 260330Z 15016KT 22/18 A2994 RMK A01 T02170178  RH  083%=      5-min Rain = 0
KAOS 260335Z 16016KT 22/18 A2994 RMK A01 T02160178  RH  083%=      5-min Rain = 0
KAOS 260340Z 15017KT 22/18 A2994 RMK A01 T02170178  RH  083%=      5-min Rain = 0
KAOS 260345Z 15017KT 22/18 A2994 RMK A01 T02170178  RH  083%=      5-min Rain = 0
KAOS 260350Z 15018KT 22/18 A2994 RMK A01 T02170178  RH  083%=      5-min Rain = 0
KAOS 260355Z 16016KT 22/18 A2995 RMK A01 T02150178  RH  083%=      5-min Rain = 0
KAOS 260400Z 16016KT 21/18 A2995 RMK A01 T02140177  RH  084%=      5-min Rain = 0
KAOS 260405Z 16016KT 21/18 A2995 RMK A01 T02130177  RH  084%=      5-min Rain = 0
KAOS 260410Z 16015KT 21/18 A2995 RMK A01 T02110177  RH  085%=      5-min Rain = 0
KAOS 260415Z 16015KT 21/18 A2995 RMK A01 T02090177  RH  086%=      5-min Rain = 0
KAOS 260420Z 16015KT 21/18 A2995 RMK A01 T02080177  RH  087%=      5-min Rain = 0
KAOS 260425Z 16015KT 21/18 A2995 RMK A01 T02080177  RH  087%=      5-min Rain = 0
KAOS 260430Z 16016KT 21/18 A2995 RMK A01 T02090176  RH  086%=      5-min Rain = 0
KAOS 260435Z 16016KT 21/18 A2995 RMK A01 T02090176  RH  086%=      5-min Rain = 0
KAOS 260440Z 16016KT 21/18 A2996 RMK A01 T02090175  RH  085%=      5-min Rain = 0
KAOS 260445Z 16015KT 21/17 A2995 RMK A01 T02080174  RH  085%=      5-min Rain = 0
KAOS 260450Z 16015KT 21/17 A2996 RMK A01 T02070173  RH  085%=      5-min Rain = 0
KAOS 260455Z 16014KT 21/17 A2996 RMK A01 T02070173  RH  085%=      5-min Rain = 0

Page generated in 0.0105 seconds.